• Join FlightAware (Why Join?)
  • Login
  • US Flag 
04:59AM EDT


 

Airport Tracker/Info


-or-


 

Live Flight TrackerFlight Track Log ✈ GJS3706 ✈ 31-Aug-2013 ✈ KBTV - KORD

Flight Track Log - Related Links

Times and Time Zones

All times are in EDT time to prevent confusion due to time zone crossing. See the GJS3706 flight status page for this flight to view local times or setup timezone preferences in your user account.

Time Position Orientation Groundspeed Altitude Reporting Facility
EDT Latitude Longitude Course Direction KTS MPH feet Rate Location/Type
05:09PM 44.4172 -73.1842 255° West 163 188 3,900  Level Boston Center
05:10PM 44.4019 -73.2769 257° West 194 223 6,000 2,520 Climbing Boston Center
05:11PM 44.3738 -73.6669 253° West  Level FlightAware Approximate
05:11PM 44.3889 -73.3783 260° West 240 276 8,900  Level Boston Center
05:12PM 44.3529 -73.7970 259° West  Level FlightAware Approximate
05:12PM 44.3733 -73.4828 258° West 272 313 10,900  Level Boston Center
05:13PM 44.3341 -73.9277 259° West  Level FlightAware Approximate
05:13PM 44.3533 -73.6014 257° West 305 351 12,900  Level Boston Center
05:14PM 44.3100 -74.0567 255° West  Level FlightAware Approximate
05:14PM 44.3378 -73.7114 259° West 325 374 14,900  Level Boston Center
05:15PM 44.3175 -73.8386 257° West 332 382 16,700 1,860 Climbing Boston Center
05:16PM 44.2992 -73.9686 259° West 337 388 18,700 1,800 Climbing Boston Center
05:17PM 44.2764 -74.1044 257° West 347 399 20,400 1,620 Climbing Boston Center
05:18PM 44.2533 -74.2575 258° West 361 415 22,100 1,560 Climbing Boston Center
05:19PM 44.2300 -74.3958 257° West 368 423 23,600 1,380 Climbing Boston Center
05:20PM 44.2089 -74.5369 258° West 373 429 24,900 1,080 Climbing Boston Center
05:21PM 44.1853 -74.6867 258° West 383 441 25,900 960 Climbing Boston Center
05:22PM 44.1592 -74.8419 257° West 401 461 26,900 960 Climbing Boston Center
05:23PM 44.1347 -75.0031 258° West 416 479 27,900 960 Climbing Boston Center
05:24PM 44.1081 -75.1667 257° West 427 491 28,900 960 Climbing Boston Center
05:25PM 44.0814 -75.3275 257° West 434 499 29,900 960 Climbing Boston Center
05:26PM 44.0539 -75.4967 257° West 434 499 30,900 960 Climbing Boston Center
05:27PM 44.0244 -75.6625 256° West 440 506 31,900 960 Climbing Boston Center
05:28PM 43.9947 -75.8283 256° West 445 512 32,900 960 Climbing Boston Center
05:29PM 43.9711 -75.9886 258° West 445 512 33,900 960 Climbing Boston Center
05:30PM 43.9469 -76.1547 259° West 445 512 34,900 960 Climbing Boston Center
05:31PM 43.9375 -76.3183 265° West 445 512 35,900 960 Climbing Boston Center
05:32PM 43.9233 -76.4847 263° West 440 506 36,900 960 Climbing Boston Center
05:33PM 43.9114 -76.6425 264° West 434 499 37,900 660 Climbing Boston Center
05:34PM 43.9000 -76.7333 260° West 410 472 38,000 60 Climbing Toronto Center
05:35PM 43.8833 -76.8833 261° West 420 483 38,000  Level Toronto Center
05:36PM 43.8667 -77.0500 262° West 430 495 38,000  Level Toronto Center
05:37PM 43.8500 -77.2000 261° West 420 483 38,000  Level Toronto Center
05:38PM 43.8333 -77.3833 263° West 430 495 38,000  Level Toronto Center
05:39PM 43.8167 -77.5333 261° West 430 495 38,000  Level Toronto Center
05:40PM 43.8000 -77.7000 262° West 430 495 38,000  Level Toronto Center
05:41PM 43.7833 -77.8500 261° West 420 483 38,000  Level Toronto Center
05:42PM 43.7667 -78.0167 262° West 420 483 38,000  Level Toronto Center
05:43PM 43.7500 -78.1833 262° West 420 483 38,000  Level Toronto Center
05:44PM 43.7333 -78.3333 261° West 420 483 38,000  Level Toronto Center
05:45PM 43.7333 -78.5000 270° West 410 472 38,000  Level Toronto Center
05:46PM 43.7167 -78.6667 262° West 410 472 38,000  Level Toronto Center
05:47PM 43.7000 -78.8000 260° West 410 472 38,000  Level Toronto Center
05:48PM 43.6833 -78.9667 262° West 410 472 38,000  Level Toronto Center
05:49PM 43.6667 -79.1333 262° West 420 483 38,000  Level Toronto Center
05:50PM 43.6500 -79.2833 261° West 410 472 38,000  Level Toronto Center
05:51PM 43.6333 -79.4333 261° West 400 460 38,000  Level Toronto Center
05:52PM 43.6167 -79.6167 263° West 420 483 38,000  Level Toronto Center
05:53PM 43.6000 -79.7500 260° West 420 483 38,000  Level Toronto Center
05:54PM 43.5833 -79.9167 262° West 410 472 38,000  Level Toronto Center
05:55PM 43.5667 -80.0667 261° West 410 472 38,000  Level Toronto Center
05:56PM 43.5500 -80.2333 262° West 410 472 38,000  Level Toronto Center
05:57PM 43.5333 -80.3667 260° West 410 472 38,000  Level Toronto Center
05:58PM 43.5167 -80.5333 262° West 400 460 38,000  Level Toronto Center
05:59PM 43.5000 -80.6667 260° West 410 472 38,000  Level Toronto Center
06:00PM 43.4667 -80.8333 255° West 400 460 38,000  Level Toronto Center
06:01PM 43.4500 -80.9833 261° West 400 460 38,000  Level Toronto Center
06:02PM 43.4333 -81.1500 262° West 400 460 38,000  Level Toronto Center
06:03PM 43.4167 -81.2833 260° West 400 460 38,000  Level Toronto Center
06:04PM 43.4000 -81.4167 260° West 400 460 38,000  Level Toronto Center
06:05PM 43.3833 -81.5833 262° West 400 460 38,000  Level Toronto Center
06:06PM 43.3667 -81.7500 262° West 400 460 38,000  Level Toronto Center
06:07PM 43.3667 -81.8833 270° West 400 460 38,000  Level Toronto Center
06:08PM 43.3167 -82.0333 245° Southwest 400 460 38,000  Level Toronto Center
06:09PM 43.3167 -82.2000 270° West 400 460 38,000  Level Toronto Center
06:10PM 43.3000 -82.3667 262° West 400 460 38,000  Level Toronto Center
06:11PM 43.2833 -82.5000 260° West 400 460 38,000  Level Toronto Center
06:12PM 43.2500 -82.6500 253° West 400 460 38,000  Level Toronto Center
06:13PM 43.2167 -82.7833 251° West 390 449 38,000  Level Toronto Center
06:14PM 43.1858 -82.9719 257° West 394 453 38,000  Level Cleveland Center
06:15PM 43.1453 -83.1100 248° West 394 453 38,000  Level Cleveland Center
06:16PM 43.1067 -83.2478 249° West 394 453 38,000  Level Cleveland Center
06:17PM 43.0703 -83.3769 249° West 388 447 38,000 -300 Level Cleveland Center
06:18PM 43.0336 -83.5117 250° West 388 447 37,500 -780 Descending Cleveland Center
06:19PM 42.9947 -83.6489 249° West 388 447 36,500 -1,020 Descending Cleveland Center
06:20PM 42.9597 -83.7892 251° West 388 447 35,500 -1,020 Descending Cleveland Center
06:21PM 42.9472 -83.9361 263° West 388 447 34,500 -1,020 Descending Cleveland Center
06:22PM 42.9322 -84.0883 262° West 394 453 33,500 -1,020 Descending Cleveland Center
06:23PM 42.9169 -84.2433 262° West 407 468 32,500 -600 Descending Cleveland Center
06:25PM 42.8917 -84.4986 262° West 420 483 32,000 -240 Descending Chicago Center
06:26PM 42.8764 -84.6603 263° West 427 491 32,000  Level Chicago Center
06:27PM 42.8581 -84.8247 261° West 435 501 32,000  Level Chicago Center
06:28PM 42.8419 -84.9867 262° West 434 499 32,000 -480 Level Chicago Center
06:29PM 42.8211 -85.1825 262° West 436 502 31,100 -1,320 Descending Chicago Center
06:30PM 42.8036 -85.3386 261° West 421 484 29,400 -1,620 Descending Chicago Center
06:31PM 42.7872 -85.4869 261° West 401 461 27,800 -1,620 Descending Chicago Center
06:32PM 42.7606 -85.6389 257° West 408 470 26,200 -1,500 Descending Chicago Center
06:33PM 42.7336 -85.7900 256° West 410 472 24,700 -1,500 Descending Chicago Center
06:34PM 42.7072 -85.9350 256° West 396 456 23,200 -1,440 Descending Chicago Center
06:35PM 42.6817 -86.0781 256° West 388 447 21,800 -1,320 Descending Chicago Center
06:36PM 42.6561 -86.2169 256° West 380 437 20,500 -1,320 Descending Chicago Center
06:37PM 42.6294 -86.3542 255° West 376 433 19,200 -1,320 Descending Chicago Center
06:38PM 42.6017 -86.4992 255° West 390 449 17,800 -1,320 Descending Chicago Center
06:39PM 42.5756 -86.6383 256° West 381 438 16,500 -1,440 Descending Chicago Center
06:40PM 42.5419 -86.7997 254° West 374 430 14,900 -1,440 Descending Chicago Center
06:41PM 42.5072 -86.9269 250° West 364 419 13,600 -1,320 Descending Chicago Center
06:42PM 42.4708 -87.0500 248° West 355 409 12,300 -1,320 Descending Chicago Center
06:43PM 42.4381 -87.1714 250° West 344 396 11,000 -1,140 Descending Chicago Center
06:44PM 42.4039 -87.2939 249° West 349 402 10,000 -540 Descending Chicago Center
06:45PM 42.3706 -87.4175 250° West 338 389 10,000  Level Chicago Center
06:46PM 42.3358 -87.5331 248° West 335 386 10,000 -360 Level Chicago Center
06:47PM 42.2747 -87.6019 220° Southwest 288 331 9,300 -1,200 Descending Chicago Center
06:48PM 42.2147 -87.6653 218° Southwest 277 319 7,600 -1,140 Descending Chicago Center
06:49PM 42.1453 -87.7386 218° Southwest 267 307 7,000 -420 Descending Chicago Center
06:50PM 42.1167 -87.7667 216° Southwest 272 313 7,000  Level Chicago TRACON
06:51PM 42.1000 -87.8667 257° West 271 312 7,000  Level Chicago TRACON
06:52PM 42.1000 -87.9667 270° West 275 316 7,000  Level Chicago TRACON
06:53PM 42.1000 -88.0500 270° West 222 255 7,000 -780 Level Chicago TRACON
06:54PM 42.0833 -88.1167 251° West 216 249 5,500 -1,620 Descending Chicago TRACON
06:54PM 42.0553 -88.1289 198° South 222 255 4,500 -1,740 Descending Chicago Center
06:55PM 42.0008 -88.0750 144° Southeast 210 242 2,800 -1,200 Descending Chicago Center
06:56PM 41.9844 -88.0181 111° Southeast 185 213 2,100 -660 Descending Chicago Center
06:57PM 41.9836 -87.9694 91° East 149 171 1,500 -480 Descending Chicago Center
06:58PM 41.9844 -87.9250 89° East 142 163 1,200 -300 Descending Chicago Center